메인 페이지
METAR-TAF:

METAR-TAF

공항 :

매콤, 미시시피, 미국

위도: 31-10-42N, 경도: 090-28-19W, 고도: 126m

현재 날씨관측

예보는 28분 전, 09:22시(UTC)에 발표되었습니다.
3kt
온도 23°C
습도 94%
기압 1012 hPa
시정: 14.5km
고도 500ft 상공 구름 조금

METAR: KMCB 190922Z AUTO 19003KT 9SM FEW005 23/22 A2989 RMK AO2 T02330222

시각: 04:50 (09:50 UTC)

예보

예보는 4 시간 10분 전, 05:40시(UTC)에 발표되었습니다.
예보 대상 시간: 19일 06시부터 20일 06시까지 (UTC)
남남서3kt
시정: 10km
맑음
19일 1400시부터 (UTC)
서남서6kt
시정: 10km
고도 25000ft 상공 구름 보통
19일 1900시부터 (UTC)
남서8kt
시정: 10km
고도 6000ft 상공 구름 많음
20일 0300시부터 (UTC)
남남서7kt
시정: 10km
맑음

TAF: KMCB 190540Z 1906/2006 21003KT P6SM SKC FM191400 24006KT P6SM SCT250 FM191900 22008KT P6SM BKN060 FM200300 20007KT P6SM SKC

4,000개 이상의 공항 관측 자료 및 예보 (METAR 및 TAF 보고).

지도상에서 검색 가능한 기상관측소가 노란 점과 빨간 점으로 표시되어 있습니다.

기상관측소 명을 보려면 표시 위로 마우스를 이동하세요.

날씨 관측과 예보를 보려면 클릭하세요.

지도 변경 : 확대하려면 엑스 표시가 있는 녹색 버튼, 축소하려면 빼기 표시가 있는 녹색 버튼, 다음 페이지의 지도를 보려면 녹색 화살표를 클릭하세요.


METAR-TAF: